Time;durP1;ratioP1;P1;durP2;ratioP2;P2;SDS_P1;SDS_P2;PMS_P1;PMS_P2;Temp;Humidity;BMP_temperature;BMP_pressure;BME280_temperature;BME280_humidity;BME280_pressure;Samples;Min_cycle;Max_cycle;Signal;HPM_P1;HPM_P2
2021/12/04 00:01:25;;;;;;;11.33;10.50;;;3.80;99.90;;;;;;5031565;28;20451;-78
2021/12/04 00:03:53;;;;;;;11.13;10.43;;;3.80;99.90;;;;;;5027154;28;20212;-79
2021/12/04 00:06:25;;;;;;;11.97;10.97;;;3.80;99.90;;;;;;5032499;28;20251;-78
2021/12/04 00:08:51;;;;;;;11.17;10.40;;;3.80;99.90;;;;;;5032572;28;20200;-79
2021/12/04 00:11:18;;;;;;;11.70;10.80;;;3.90;99.90;;;;;;5031545;28;20576;-79
2021/12/04 00:13:45;;;;;;;11.43;10.63;;;3.90;99.90;;;;;;5031221;28;20223;-79
2021/12/04 00:16:12;;;;;;;11.70;10.80;;;3.90;99.90;;;;;;5027418;28;20220;-79
2021/12/04 00:18:39;;;;;;;11.63;10.83;;;3.90;99.90;;;;;;5033791;28;20200;-80
2021/12/04 00:21:06;;;;;;;11.30;10.50;;;3.90;99.90;;;;;;5030138;28;20231;-80
2021/12/04 00:23:34;;;;;;;11.37;10.50;;;3.90;99.90;;;;;;5036324;28;20270;-80
2021/12/04 00:26:01;;;;;;;11.43;10.53;;;3.90;99.90;;;;;;5036302;28;20251;-80
2021/12/04 00:28:28;;;;;;;11.30;10.50;;;3.90;99.90;;;;;;5033771;28;20569;-79
2021/12/04 00:30:55;;;;;;;11.70;10.90;;;3.90;99.90;;;;;;5039279;28;20211;-80
2021/12/04 00:33:25;;;;;;;11.80;11.00;;;3.90;99.90;;;;;;5039686;28;20618;-80
2021/12/04 00:35:57;;;;;;;11.87;10.97;;;3.90;99.90;;;;;;5039844;28;20289;-80
2021/12/04 00:49:25;;;;;;;11.60;10.80;;;3.90;99.90;;;;;;5034917;28;20187;-79
2021/12/04 00:51:54;;;;;;;10.87;10.17;;;4.00;99.90;;;;;;5038738;28;20207;-80
2021/12/04 00:54:22;;;;;;;12.37;11.30;;;4.00;99.90;;;;;;5033649;28;20234;-79
2021/12/04 00:56:52;;;;;;;11.50;10.70;;;4.00;99.90;;;;;;5037651;28;20227;-79
2021/12/04 00:59:19;;;;;;;11.37;10.57;;;4.00;99.90;;;;;;5039698;28;20188;-79
2021/12/04 01:01:46;;;;;;;11.67;10.87;;;4.00;99.90;;;;;;5039059;28;20322;-79
2021/12/04 01:04:15;;;;;;;12.10;11.20;;;4.00;99.90;;;;;;5036961;28;20215;-79
2021/12/04 01:06:42;;;;;;;12.43;11.33;;;4.00;99.90;;;;;;5036435;28;20224;-79
2021/12/04 01:09:11;;;;;;;11.90;11.10;;;3.90;99.90;;;;;;5039051;28;20204;-79
2021/12/04 01:11:38;;;;;;;11.90;11.00;;;4.00;99.90;;;;;;5037464;28;20200;-79
2021/12/04 01:14:08;;;;;;;11.37;10.67;;;3.90;99.90;;;;;;5036262;28;20196;-79
2021/12/04 01:16:35;;;;;;;12.77;11.57;;;3.90;99.90;;;;;;5032926;28;20228;-79
2021/12/04 01:19:02;;;;;;;12.63;11.63;;;3.90;99.90;;;;;;5036024;28;20660;-79
2021/12/04 01:21:29;;;;;;;12.30;11.30;;;3.80;99.90;;;;;;5027970;28;20447;-79
2021/12/04 01:23:56;;;;;;;13.50;12.50;;;3.80;99.90;;;;;;5036081;28;20266;-79
2021/12/04 01:26:23;;;;;;;13.97;12.97;;;3.70;99.90;;;;;;5035699;28;20319;-79
2021/12/04 01:28:50;;;;;;;14.30;13.07;;;3.50;99.90;;;;;;5035893;28;20211;-78
2021/12/04 01:31:19;;;;;;;14.50;13.40;;;3.50;99.90;;;;;;5035296;28;20254;-78
2021/12/04 01:33:47;;;;;;;15.03;13.73;;;3.30;99.90;;;;;;5035787;28;20254;-80
2021/12/04 01:36:13;;;;;;;14.57;13.43;;;3.20;99.90;;;;;;5035163;28;20227;-78
2021/12/04 01:38:41;;;;;;;15.73;14.33;;;3.20;99.90;;;;;;5032607;28;20250;-79
2021/12/04 01:41:08;;;;;;;14.83;13.77;;;3.10;99.90;;;;;;5034861;28;20478;-78
2021/12/04 01:43:35;;;;;;;14.87;13.77;;;3.00;99.90;;;;;;5031443;28;20201;-78
2021/12/04 01:46:02;;;;;;;15.17;13.97;;;2.90;99.90;;;;;;5035634;28;20886;-79
2021/12/04 01:48:30;;;;;;;14.87;13.57;;;2.90;99.90;;;;;;5034964;28;20505;-78
2021/12/04 01:50:58;;;;;;;15.27;14.07;;;2.80;99.90;;;;;;5036625;28;20994;-78
2021/12/04 01:53:26;;;;;;;15.73;14.43;;;2.80;99.90;;;;;;5031230;28;20447;-78
2021/12/04 01:55:55;;;;;;;15.47;14.10;;;2.70;99.90;;;;;;5031752;28;20902;-78
2021/12/04 01:58:23;;;;;;;15.67;14.37;;;2.70;99.90;;;;;;5031872;28;20451;-78
2021/12/04 02:00:50;;;;;;;15.03;13.83;;;2.70;99.90;;;;;;5032890;28;20500;-78
2021/12/04 02:03:18;;;;;;;15.83;14.60;;;2.80;99.90;;;;;;5032534;28;20511;-78
2021/12/04 02:05:47;;;;;;;15.67;14.43;;;2.80;99.90;;;;;;5023825;28;20517;-78
2021/12/04 02:08:16;;;;;;;15.70;14.40;;;2.80;99.90;;;;;;5039556;28;20478;-78
2021/12/04 02:10:44;;;;;;;15.67;14.43;;;2.80;99.90;;;;;;5032606;28;20501;-78
2021/12/04 02:13:11;;;;;;;15.00;13.80;;;2.80;99.90;;;;;;5034436;28;20442;-78
2021/12/04 02:15:38;;;;;;;14.13;13.03;;;2.80;99.90;;;;;;5030077;28;20451;-78
2021/12/04 02:18:05;;;;;;;14.77;13.47;;;2.90;99.90;;;;;;5029300;28;20462;-78
2021/12/04 02:20:34;;;;;;;15.20;14.00;;;2.80;99.90;;;;;;5040349;28;20494;-78
2021/12/04 02:23:02;;;;;;;15.53;14.33;;;2.90;99.90;;;;;;5032247;28;20534;-78
2021/12/04 02:25:29;;;;;;;15.20;14.10;;;2.90;99.90;;;;;;5024455;28;20467;-78
2021/12/04 02:27:56;;;;;;;14.83;13.67;;;2.90;99.90;;;;;;5031480;28;20481;-78
2021/12/04 02:30:26;;;;;;;14.30;13.20;;;2.90;99.90;;;;;;5033941;28;20435;-78
2021/12/04 02:32:54;;;;;;;14.83;13.53;;;3.00;99.90;;;;;;5032656;28;20969;-79
2021/12/04 02:35:21;;;;;;;14.80;13.60;;;3.00;99.90;;;;;;5029916;28;20508;-78
2021/12/04 02:37:50;;;;;;;14.60;13.60;;;3.00;99.90;;;;;;5032509;28;20453;-78
2021/12/04 02:40:20;;;;;;;14.30;13.30;;;3.10;99.90;;;;;;5030255;28;20452;-78
2021/12/04 02:42:48;;;;;;;14.40;13.20;;;3.10;99.90;;;;;;5018899;28;20501;-78
2021/12/04 02:45:15;;;;;;;14.23;13.23;;;3.10;99.90;;;;;;5031627;28;20699;-79
2021/12/04 02:47:42;;;;;;;13.57;12.67;;;3.20;99.90;;;;;;5025838;28;20969;-78
2021/12/04 02:50:12;;;;;;;13.83;12.83;;;3.20;99.90;;;;;;5033272;28;20431;-79
2021/12/04 02:52:39;;;;;;;13.93;12.93;;;3.20;99.90;;;;;;5023784;28;20473;-78
2021/12/04 02:55:08;;;;;;;14.10;13.10;;;3.20;99.90;;;;;;5032144;28;20450;-78
2021/12/04 02:57:40;;;;;;;13.40;12.43;;;3.20;99.90;;;;;;5025007;28;20470;-78
2021/12/04 03:00:08;;;;;;;13.53;12.67;;;3.30;99.90;;;;;;5024008;28;20443;-78
2021/12/04 03:02:35;;;;;;;14.67;13.63;;;3.30;99.90;;;;;;5033209;28;20441;-78
2021/12/04 03:05:06;;;;;;;14.13;13.13;;;3.30;99.90;;;;;;5030540;28;21191;-78
2021/12/04 03:07:33;;;;;;;14.27;13.37;;;3.40;99.90;;;;;;5025742;28;21006;-79
2021/12/04 03:10:00;;;;;;;13.57;12.67;;;3.40;99.90;;;;;;5042495;28;20863;-78
2021/12/04 03:12:29;;;;;;;13.97;13.03;;;3.40;99.90;;;;;;5024985;28;20192;-79
2021/12/04 03:14:56;;;;;;;13.67;12.67;;;3.50;99.90;;;;;;5032225;28;20223;-79
2021/12/04 03:17:25;;;;;;;13.80;12.80;;;3.50;99.90;;;;;;5036808;28;21006;-80
2021/12/04 03:19:53;;;;;;;13.40;12.60;;;3.50;99.90;;;;;;5038260;28;20445;-80
2021/12/04 03:22:22;;;;;;;14.10;13.10;;;3.50;99.90;;;;;;5038248;28;20443;-79
2021/12/04 03:24:49;;;;;;;13.60;12.70;;;3.60;99.90;;;;;;5033751;28;20660;-80
2021/12/04 03:27:17;;;;;;;13.37;12.47;;;3.60;99.90;;;;;;5037134;28;20224;-80
2021/12/04 03:29:49;;;;;;;13.37;12.47;;;3.50;99.90;;;;;;5028423;28;20459;-80
2021/12/04 03:32:46;;;;;;;13.80;12.80;;;3.60;99.90;;;;;;5038031;28;20211;-80
2021/12/04 03:35:26;;;;;;;13.70;12.83;;;3.60;99.90;;;;;;5033204;28;20192;-79
2021/12/04 03:40:52;;;;;;;13.43;12.63;;;3.60;99.90;;;;;;5039497;28;20573;-78
2021/12/04 03:43:19;;;;;;;13.40;12.60;;;3.60;99.90;;;;;;5045660;28;20196;-79
2021/12/04 03:45:53;;;;;;;13.20;12.40;;;3.70;99.90;;;;;;5042200;28;20482;-80
2021/12/04 03:48:49;;;;;;;13.43;12.53;;;3.70;99.90;;;;;;5030367;28;20201;-79
2021/12/04 03:51:17;;;;;;;13.23;12.43;;;3.70;99.90;;;;;;5034508;28;20492;-80
2021/12/04 03:53:44;;;;;;;13.40;12.60;;;3.70;99.90;;;;;;5037838;28;20478;-80
2021/12/04 03:56:12;;;;;;;13.70;12.63;;;3.70;99.90;;;;;;5037337;28;20597;-80
2021/12/04 03:58:39;;;;;;;12.17;11.37;;;3.70;99.90;;;;;;5026978;28;20287;-80
2021/12/04 04:01:08;;;;;;;12.30;11.50;;;3.70;99.90;;;;;;5027396;28;20260;-80
2021/12/04 04:03:35;;;;;;;12.77;11.87;;;3.70;99.90;;;;;;5034033;28;20712;-80
2021/12/04 04:06:02;;;;;;;12.50;11.70;;;3.70;99.90;;;;;;5035697;28;20249;-80
2021/12/04 04:08:29;;;;;;;13.30;12.40;;;3.70;99.90;;;;;;5035009;28;20203;-79
2021/12/04 04:10:55;;;;;;;12.90;12.10;;;3.70;99.90;;;;;;5040019;28;20489;-79
2021/12/04 04:13:23;;;;;;;12.93;12.03;;;3.70;99.90;;;;;;5041607;28;20204;-80
2021/12/04 04:15:49;;;;;;;12.80;12.00;;;3.70;99.90;;;;;;5030173;28;20521;-80
2021/12/04 04:18:18;;;;;;;12.30;11.50;;;3.70;99.90;;;;;;5032373;28;20204;-80
2021/12/04 04:20:45;;;;;;;12.10;11.37;;;3.80;99.90;;;;;;5037687;28;20195;-79
2021/12/04 04:23:12;;;;;;;12.17;11.43;;;3.80;99.90;;;;;;5036668;28;20458;-80
2021/12/04 04:25:39;;;;;;;12.43;11.53;;;3.80;99.90;;;;;;5034985;28;20671;-80
2021/12/04 04:28:06;;;;;;;12.73;11.93;;;3.80;99.90;;;;;;5036627;28;20453;-82
2021/12/04 04:30:32;;;;;;;12.63;11.83;;;3.90;99.90;;;;;;5036472;28;20461;-83
2021/12/04 04:33:00;;;;;;;12.27;11.47;;;3.90;99.90;;;;;;5038419;28;20203;-80
2021/12/04 04:35:31;;;;;;;12.03;11.33;;;3.90;99.90;;;;;;5028767;28;20684;-79
2021/12/04 04:38:04;;;;;;;12.23;11.53;;;3.90;99.90;;;;;;5038615;28;20196;-80
2021/12/04 05:10:54;;;;;;;10.73;10.13;;;4.40;99.90;;;;;;5029744;28;20313;-80
2021/12/04 05:13:22;;;;;;;11.10;10.50;;;4.40;99.90;;;;;;5037408;28;20718;-79
2021/12/04 05:15:58;;;;;;;11.10;10.50;;;4.50;99.90;;;;;;5035524;28;20246;-78
2021/12/04 05:18:35;;;;;;;11.10;10.50;;;4.50;99.90;;;;;;5035583;28;20251;-79
2021/12/04 05:21:05;;;;;;;11.10;10.50;;;4.60;99.90;;;;;;5040122;28;20203;-79
2021/12/04 05:23:35;;;;;;;10.57;10.07;;;4.60;99.90;;;;;;5037788;28;20201;-79
2021/12/04 05:26:03;;;;;;;10.90;10.30;;;4.70;99.90;;;;;;5036462;28;20223;-77
2021/12/04 05:28:30;;;;;;;11.10;10.50;;;4.70;99.90;;;;;;5043622;28;20204;-77
2021/12/04 05:30:57;;;;;;;11.30;10.70;;;4.70;99.90;;;;;;5038933;28;20660;-80
2021/12/04 05:33:24;;;;;;;11.33;10.73;;;4.70;99.90;;;;;;5037831;28;20204;-81
2021/12/04 05:35:51;;;;;;;11.37;10.77;;;4.80;99.90;;;;;;5031081;28;20239;-81
2021/12/04 05:38:19;;;;;;;11.10;10.50;;;4.80;99.90;;;;;;5036857;28;20192;-80
2021/12/04 05:40:48;;;;;;;11.10;10.50;;;4.80;99.90;;;;;;5030395;28;20259;-80
2021/12/04 05:43:18;;;;;;;10.97;10.37;;;4.90;99.90;;;;;;5029767;28;20210;-79
2021/12/04 05:45:48;;;;;;;11.30;10.70;;;4.90;99.90;;;;;;5029168;28;20246;-80
2021/12/04 05:48:19;;;;;;;11.37;10.77;;;4.90;99.90;;;;;;5035067;28;20191;-80
2021/12/04 05:51:16;;;;;;;11.20;10.60;;;4.90;99.90;;;;;;5033337;28;20636;-79
2021/12/04 05:53:56;;;;;;;11.70;11.10;;;4.90;99.90;;;;;;5035993;28;20206;-78
2021/12/04 05:56:24;;;;;;;11.83;11.20;;;4.90;99.90;;;;;;5034844;28;20225;-78
2021/12/04 05:58:51;;;;;;;11.70;11.10;;;4.90;99.90;;;;;;5035391;28;20592;-79
2021/12/04 06:01:19;;;;;;;11.57;10.97;;;5.00;99.90;;;;;;5033626;28;20224;-79
2021/12/04 06:03:47;;;;;;;11.80;11.20;;;5.00;99.90;;;;;;5028366;28;20295;-78
2021/12/04 06:06:13;;;;;;;12.00;11.40;;;5.00;99.90;;;;;;5032751;28;20666;-81
2021/12/04 06:08:41;;;;;;;12.37;11.77;;;5.00;99.90;;;;;;5035350;28;20200;-80
2021/12/04 06:11:07;;;;;;;12.53;11.73;;;5.00;99.90;;;;;;5034484;28;20204;-81
2021/12/04 06:13:36;;;;;;;11.80;11.20;;;5.00;99.90;;;;;;5027757;28;20583;-82
2021/12/04 06:16:03;;;;;;;12.07;11.40;;;5.00;99.90;;;;;;5036523;28;20212;-81
2021/12/04 06:18:31;;;;;;;12.10;11.40;;;5.10;99.90;;;;;;5033052;28;20210;-83
2021/12/04 06:23:43;;;;;;;11.83;11.10;;;5.10;99.90;;;;;;5034667;28;20207;-84
2021/12/04 06:26:10;;;;;;;12.30;11.53;;;5.10;99.90;;;;;;5039382;28;20250;-84
2021/12/04 06:28:38;;;;;;;11.93;11.23;;;5.20;99.90;;;;;;5051627;28;20550;-84
2021/12/04 06:31:07;;;;;;;11.50;10.90;;;5.20;99.90;;;;;;5039023;28;20191;-83
2021/12/04 06:33:34;;;;;;;11.40;10.80;;;5.20;99.90;;;;;;5035776;28;20211;-80
2021/12/04 06:36:01;;;;;;;11.83;11.23;;;5.20;99.90;;;;;;5025874;28;20319;-79
2021/12/04 06:38:28;;;;;;;11.77;11.17;;;5.20;99.90;;;;;;5025634;28;20242;-80
2021/12/04 06:40:56;;;;;;;11.70;11.10;;;5.30;99.90;;;;;;5029582;28;20322;-79
2021/12/04 06:43:24;;;;;;;11.80;11.20;;;5.30;99.90;;;;;;5034644;28;20261;-80
2021/12/04 06:45:58;;;;;;;11.73;11.13;;;5.30;99.90;;;;;;5033539;28;20605;-79
2021/12/04 06:48:31;;;;;;;11.93;11.33;;;5.30;99.90;;;;;;5035447;28;20675;-83
2021/12/04 06:51:01;;;;;;;12.03;11.40;;;5.30;99.90;;;;;;5033087;28;20208;-82
2021/12/04 06:53:31;;;;;;;12.07;11.47;;;5.40;99.90;;;;;;5030709;28;20196;-80
2021/12/04 06:56:00;;;;;;;12.20;11.60;;;5.40;99.90;;;;;;5033386;28;20266;-79
2021/12/04 06:58:28;;;;;;;11.97;11.37;;;5.40;99.90;;;;;;5027297;28;20207;-78
2021/12/04 07:00:57;;;;;;;12.90;12.27;;;5.40;99.90;;;;;;5027184;28;20216;-78
2021/12/04 07:03:24;;;;;;;12.50;11.90;;;5.50;99.90;;;;;;5025905;28;20674;-79
2021/12/04 07:05:51;;;;;;;12.43;11.73;;;5.50;99.90;;;;;;5033715;28;20250;-78
2021/12/04 07:08:18;;;;;;;12.00;11.40;;;5.50;99.90;;;;;;5033470;28;20714;-80
2021/12/04 07:10:45;;;;;;;12.50;11.90;;;5.50;99.90;;;;;;5033964;28;20265;-81
2021/12/04 07:13:12;;;;;;;12.33;11.73;;;5.60;99.90;;;;;;5030415;28;20207;-77
2021/12/04 07:15:41;;;;;;;12.33;11.73;;;5.60;99.90;;;;;;5038100;28;20217;-81
2021/12/04 07:18:10;;;;;;;12.70;12.10;;;5.60;99.90;;;;;;5033846;28;20200;-79
2021/12/04 07:20:37;;;;;;;12.70;12.10;;;5.60;99.90;;;;;;5023606;28;20207;-78
2021/12/04 07:23:04;;;;;;;13.17;12.47;;;5.70;99.90;;;;;;5026966;28;20205;-78
2021/12/04 07:25:31;;;;;;;12.67;11.97;;;5.70;99.90;;;;;;5030497;28;20633;-80
2021/12/04 07:27:58;;;;;;;14.10;13.40;;;5.80;99.90;;;;;;5032489;28;20204;-78
2021/12/04 07:30:25;;;;;;;14.07;13.27;;;5.80;99.90;;;;;;5027095;28;20196;-79
2021/12/04 07:32:52;;;;;;;12.90;12.20;;;5.80;99.90;;;;;;5027976;28;20200;-79
2021/12/04 07:35:21;;;;;;;13.40;12.70;;;5.80;99.90;;;;;;5025350;28;20653;-78
2021/12/04 07:37:49;;;;;;;13.60;12.80;;;5.90;99.90;;;;;;5024658;28;20688;-77
2021/12/04 07:40:16;;;;;;;12.10;11.50;;;5.90;99.90;;;;;;5027707;28;20208;-79
2021/12/04 07:42:43;;;;;;;12.00;11.40;;;5.90;99.90;;;;;;5031979;28;20203;-78
2021/12/04 07:45:10;;;;;;;11.90;11.23;;;6.00;99.90;;;;;;5031018;28;20212;-79
2021/12/04 07:47:37;;;;;;;11.80;11.20;;;6.00;99.90;;;;;;5036939;28;20215;-80
2021/12/04 07:50:09;;;;;;;11.43;10.83;;;6.00;99.90;;;;;;5036415;28;20257;-79
2021/12/04 07:52:38;;;;;;;12.10;11.43;;;6.10;99.90;;;;;;5035821;28;20624;-78
2021/12/04 07:55:07;;;;;;;11.70;11.07;;;6.10;99.90;;;;;;5036349;28;20208;-79
2021/12/04 07:57:34;;;;;;;11.70;11.10;;;6.10;99.90;;;;;;5036020;28;20286;-78
2021/12/04 08:00:01;;;;;;;11.70;11.10;;;6.20;99.90;;;;;;5036780;28;20204;-78
2021/12/04 08:02:28;;;;;;;12.60;11.90;;;6.20;99.90;;;;;;5028251;28;20276;-78
2021/12/04 08:04:55;;;;;;;12.27;11.57;;;6.30;99.90;;;;;;5030203;28;20560;-79
2021/12/04 08:07:21;;;;;;;13.20;12.47;;;6.30;99.90;;;;;;5051838;28;20216;-79
2021/12/04 08:09:50;;;;;;;12.30;11.60;;;6.40;99.90;;;;;;5033954;28;20207;-78
2021/12/04 08:12:17;;;;;;;12.47;11.83;;;6.40;99.90;;;;;;5034186;28;20205;-78
2021/12/04 08:14:43;;;;;;;12.20;11.50;;;6.50;99.90;;;;;;5031569;28;20192;-79
2021/12/04 08:17:10;;;;;;;11.90;11.20;;;6.60;99.90;;;;;;5033193;28;20232;-79
2021/12/04 08:19:38;;;;;;;12.30;11.60;;;6.60;99.90;;;;;;5032359;28;20235;-78
2021/12/04 08:22:05;;;;;;;12.30;11.60;;;6.70;99.90;;;;;;5038988;28;20207;-78
2021/12/04 08:24:32;;;;;;;14.00;13.30;;;6.70;99.90;;;;;;5037233;28;20263;-79
2021/12/04 08:27:01;;;;;;;13.40;12.70;;;6.80;99.90;;;;;;5035977;28;20220;-79
2021/12/04 08:29:28;;;;;;;12.60;11.90;;;6.90;99.90;;;;;;5028481;28;20288;-80
2021/12/04 08:31:55;;;;;;;13.67;12.97;;;7.00;99.90;;;;;;5036396;28;20202;-79
2021/12/04 08:34:23;;;;;;;12.30;11.70;;;7.10;99.90;;;;;;5035333;28;20666;-79
2021/12/04 08:36:52;;;;;;;9.77;9.27;;;7.20;99.90;;;;;;5027999;28;20229;-80
2021/12/04 08:39:21;;;;;;;7.80;7.40;;;7.20;99.90;;;;;;5036211;28;20243;-79
2021/12/04 08:41:48;;;;;;;11.87;11.27;;;7.30;99.90;;;;;;5035039;28;20201;-80
2021/12/04 08:44:18;;;;;;;8.30;7.80;;;7.40;99.90;;;;;;5036292;28;20217;-80
2021/12/04 08:46:45;;;;;;;11.00;10.40;;;7.40;99.90;;;;;;5030019;28;20216;-78
2021/12/04 08:49:13;;;;;;;10.20;9.60;;;7.50;99.90;;;;;;5036049;28;20327;-79
2021/12/04 08:51:41;;;;;;;10.90;10.30;;;7.50;99.90;;;;;;5035553;28;20195;-78
2021/12/04 08:54:10;;;;;;;10.33;9.73;;;7.60;99.90;;;;;;5031477;28;20226;-82
2021/12/04 08:56:37;;;;;;;8.40;7.90;;;7.70;99.90;;;;;;5043090;28;20244;-80
2021/12/04 08:59:05;;;;;;;6.97;6.47;;;7.80;99.90;;;;;;5034998;28;20630;-79
2021/12/04 09:01:39;;;;;;;7.07;6.57;;;7.90;99.90;;;;;;5043455;28;20203;-79
2021/12/04 09:04:09;;;;;;;7.27;6.77;;;7.90;99.90;;;;;;5030773;28;20198;-79
2021/12/04 09:06:37;;;;;;;6.60;6.20;;;8.00;99.90;;;;;;5037350;28;20223;-78
2021/12/04 09:09:06;;;;;;;6.63;6.13;;;8.10;99.90;;;;;;5037492;28;20202;-79
2021/12/04 09:11:37;;;;;;;7.20;6.70;;;8.10;99.90;;;;;;5031192;28;20253;-79
2021/12/04 09:14:06;;;;;;;4.10;3.80;;;8.20;99.90;;;;;;5027725;28;20204;-79
2021/12/04 09:16:35;;;;;;;6.57;6.17;;;8.30;99.90;;;;;;5033557;28;20220;-80
2021/12/04 09:19:02;;;;;;;6.37;5.97;;;8.40;99.90;;;;;;5044665;28;20203;-80
2021/12/04 09:21:29;;;;;;;6.30;5.90;;;8.60;99.90;;;;;;5028519;28;20227;-80
2021/12/04 09:24:03;;;;;;;6.13;5.73;;;8.70;99.90;;;;;;5038020;28;20668;-80
2021/12/04 09:26:39;;;;;;;6.00;5.60;;;8.80;99.90;;;;;;5042236;28;20243;-80
2021/12/04 09:29:14;;;;;;;2.87;2.77;;;8.90;99.90;;;;;;5037670;28;20196;-81
2021/12/04 09:32:14;;;;;;;3.27;2.97;;;8.90;99.90;;;;;;5041215;28;20210;-79
2021/12/04 09:35:09;;;;;;;2.80;2.70;;;9.00;99.90;;;;;;5038594;28;20259;-80
2021/12/04 10:05:51;;;;;;;5.50;5.20;;;9.90;99.90;;;;;;4975169;28;20225;-86
2021/12/04 10:19:43;;;;;;;4.80;4.60;;;10.30;99.90;;;;;;5087734;28;20567;-80
2021/12/04 10:22:23;;;;;;;5.33;5.10;;;10.40;99.90;;;;;;5101725;28;20202;-80
2021/12/04 10:33:27;;;;;;;6.20;5.90;;;10.60;99.90;;;;;;5051368;28;20668;-80
2021/12/04 10:35:57;;;;;;;9.67;9.17;;;10.80;99.90;;;;;;5080837;28;20636;-79
2021/12/04 10:38:31;;;;;;;11.87;11.17;;;10.90;99.90;;;;;;5049792;28;20230;-80
2021/12/04 10:40:58;;;;;;;10.77;10.17;;;10.90;99.90;;;;;;5046854;28;20687;-80
2021/12/04 10:43:28;;;;;;;11.87;11.27;;;10.90;99.90;;;;;;5046217;28;20206;-79
2021/12/04 10:45:59;;;;;;;10.43;9.93;;;10.90;99.90;;;;;;5034436;28;20275;-80
2021/12/04 10:48:29;;;;;;;10.77;10.17;;;10.80;99.90;;;;;;5050370;28;20415;-80
2021/12/04 10:51:07;;;;;;;5.60;5.30;;;10.70;99.90;;;;;;5051652;28;20680;-80
2021/12/04 10:53:48;;;;;;;5.20;4.90;;;10.60;99.90;;;;;;5049298;28;20205;-79
2021/12/04 10:56:26;;;;;;;4.60;4.30;;;10.60;99.90;;;;;;5043140;28;20250;-80
2021/12/04 11:01:50;;;;;;;10.10;9.50;;;10.20;99.90;;;;;;5047746;28;20198;-79
2021/12/04 11:04:26;;;;;;;11.60;10.93;;;10.10;99.90;;;;;;5048060;28;20694;-79
2021/12/04 11:35:16;;;;;;;11.97;11.23;;;10.10;99.90;;;;;;5036385;28;20282;-79
2021/12/04 11:38:03;;;;;;;9.90;9.30;;;9.80;99.90;;;;;;5034120;28;20698;-79
2021/12/04 11:41:10;;;;;;;11.27;10.63;;;9.70;99.90;;;;;;5037283;28;20196;-79
2021/12/04 11:43:50;;;;;;;9.93;9.33;;;9.50;99.90;;;;;;5044666;28;20210;-79
2021/12/04 11:46:22;;;;;;;9.87;9.27;;;9.40;99.90;;;;;;5047040;28;20220;-79
2021/12/04 11:48:52;;;;;;;10.83;10.13;;;9.30;99.90;;;;;;5046338;28;20266;-79
2021/12/04 11:51:21;;;;;;;12.23;11.53;;;9.20;99.90;;;;;;5047155;28;20207;-79
2021/12/04 11:53:49;;;;;;;8.60;8.10;;;9.20;99.90;;;;;;5046942;28;20227;-79
2021/12/04 11:56:21;;;;;;;9.63;9.03;;;9.20;99.90;;;;;;5037466;28;20232;-79
2021/12/04 11:58:50;;;;;;;9.10;8.60;;;9.30;99.90;;;;;;5045282;28;20214;-79
2021/12/04 12:01:23;;;;;;;10.07;9.47;;;9.30;99.90;;;;;;5045810;28;20200;-80
2021/12/04 12:03:52;;;;;;;9.40;8.90;;;9.30;99.90;;;;;;5075995;28;20303;-80
2021/12/04 12:06:29;;;;;;;9.03;8.43;;;9.30;99.90;;;;;;5073913;28;20248;-78
2021/12/04 12:09:04;;;;;;;8.60;8.10;;;9.20;99.90;;;;;;5041539;28;20676;-79
2021/12/04 12:11:33;;;;;;;8.80;8.30;;;9.20;99.90;;;;;;5035444;28;20209;-80
2021/12/04 12:14:03;;;;;;;9.33;8.73;;;9.30;99.90;;;;;;5041848;28;20327;-79
2021/12/04 12:16:36;;;;;;;9.90;9.30;;;9.30;99.90;;;;;;5032029;28;20211;-80
2021/12/04 12:19:09;;;;;;;11.13;10.53;;;9.40;99.90;;;;;;5036453;28;20244;-80
2021/12/04 12:21:52;;;;;;;11.43;10.83;;;9.50;99.90;;;;;;5042852;28;20266;-80
2021/12/04 12:27:26;;;;;;;11.40;10.80;;;9.80;99.90;;;;;;5044902;28;20226;-80
2021/12/04 12:32:52;;;;;;;12.27;11.57;;;9.90;99.90;;;;;;5037663;28;20226;-80
2021/12/04 12:38:06;;;;;;;10.57;9.97;;;9.90;99.90;;;;;;5043180;28;20635;-80
2021/12/04 12:40:32;;;;;;;9.97;9.47;;;9.90;99.90;;;;;;5042573;28;20203;-80
2021/12/04 12:43:18;;;;;;;10.07;9.50;;;9.90;99.90;;;;;;5041707;28;20204;-80
2021/12/04 12:45:58;;;;;;;10.50;9.90;;;9.90;99.90;;;;;;5042358;28;20226;-80
2021/12/04 12:48:25;;;;;;;9.97;9.37;;;9.90;99.90;;;;;;5042362;28;20634;-80
2021/12/04 12:50:54;;;;;;;13.20;12.10;;;9.90;99.90;;;;;;5043413;28;20200;-80
2021/12/04 12:53:25;;;;;;;12.00;11.10;;;9.90;99.90;;;;;;5041263;28;20263;-80
2021/12/04 12:56:03;;;;;;;10.80;10.10;;;9.90;99.90;;;;;;5036436;28;20258;-80
2021/12/04 12:58:39;;;;;;;11.00;10.30;;;9.90;99.90;;;;;;5025478;28;20708;-80
2021/12/04 13:12:21;;;;;;;10.20;9.70;;;9.90;99.90;;;;;;4999091;28;20200;-80
2021/12/04 13:14:51;;;;;;;10.37;9.67;;;9.90;99.90;;;;;;5057016;28;20199;-79
2021/12/04 13:17:21;;;;;;;10.10;9.60;;;9.90;99.90;;;;;;5034328;28;20203;-79
2021/12/04 13:19:52;;;;;;;10.60;10.00;;;9.90;99.90;;;;;;5038082;28;20224;-79
2021/12/04 13:22:23;;;;;;;10.83;10.23;;;9.90;99.90;;;;;;5033571;28;20329;-79
2021/12/04 13:24:52;;;;;;;10.60;10.00;;;9.90;99.90;;;;;;5032133;28;20207;-79
2021/12/04 13:29:48;;;;;;;10.60;10.00;;;10.00;99.90;;;;;;5033971;28;20192;-80
2021/12/04 13:32:19;;;;;;;10.27;9.77;;;9.90;99.90;;;;;;5033971;28;20204;-80
2021/12/04 13:34:46;;;;;;;10.00;9.40;;;10.00;99.90;;;;;;5042254;28;20625;-80
2021/12/04 13:37:14;;;;;;;10.00;9.40;;;10.00;99.90;;;;;;5025882;28;20231;-80
2021/12/04 13:39:43;;;;;;;10.13;9.47;;;10.00;99.90;;;;;;5029565;28;20651;-79
2021/12/04 13:42:10;;;;;;;10.17;9.60;;;10.00;99.90;;;;;;5029978;28;20619;-78
2021/12/04 13:44:38;;;;;;;10.00;9.43;;;10.00;99.90;;;;;;5031204;28;20804;-78
2021/12/04 13:47:07;;;;;;;10.17;9.60;;;10.00;99.90;;;;;;5028773;28;20297;-79
2021/12/04 13:49:39;;;;;;;9.90;9.40;;;9.90;99.90;;;;;;5037544;28;20204;-80
2021/12/04 13:52:10;;;;;;;10.13;9.53;;;9.90;99.90;;;;;;5031788;28;20231;-79
2021/12/04 13:54:40;;;;;;;10.10;9.50;;;9.90;99.90;;;;;;5033000;28;20203;-79
2021/12/04 13:57:12;;;;;;;9.80;9.30;;;9.90;99.90;;;;;;5064719;28;20228;-78
2021/12/04 13:59:39;;;;;;;10.03;9.53;;;9.80;99.90;;;;;;5035220;28;20216;-79
2021/12/04 14:02:08;;;;;;;9.97;9.47;;;9.80;99.90;;;;;;5033263;28;20711;-79
2021/12/04 14:04:37;;;;;;;10.00;9.50;;;9.80;99.90;;;;;;5063338;28;20204;-79
2021/12/04 14:07:05;;;;;;;10.20;9.60;;;9.70;99.90;;;;;;5032067;28;20247;-78
2021/12/04 14:09:34;;;;;;;10.40;9.80;;;9.80;99.90;;;;;;5033397;28;20250;-79
2021/12/04 14:12:02;;;;;;;10.40;9.80;;;9.70;99.90;;;;;;5057831;28;20290;-79
2021/12/04 14:14:31;;;;;;;10.00;9.40;;;9.70;99.90;;;;;;5028606;28;20259;-79
2021/12/04 14:17:08;;;;;;;10.60;10.00;;;9.70;99.90;;;;;;5030006;28;20251;-79
2021/12/04 14:19:35;;;;;;;10.17;9.53;;;9.60;99.90;;;;;;5043658;28;20211;-79
2021/12/04 14:22:08;;;;;;;10.37;9.77;;;9.60;99.90;;;;;;5030470;28;20333;-79
2021/12/04 14:24:42;;;;;;;10.20;9.60;;;9.50;99.90;;;;;;5057904;28;20585;-79
2021/12/04 14:27:11;;;;;;;10.07;9.57;;;9.50;99.90;;;;;;5024104;28;20219;-79
2021/12/04 14:29:41;;;;;;;10.30;9.70;;;9.40;99.90;;;;;;5033082;28;20414;-79
2021/12/04 14:32:11;;;;;;;10.50;9.90;;;9.40;99.90;;;;;;5032664;28;20195;-79
2021/12/04 14:34:39;;;;;;;10.67;10.07;;;9.30;99.90;;;;;;5048583;28;20202;-79
2021/12/04 14:37:12;;;;;;;10.33;9.83;;;9.30;99.90;;;;;;5034676;28;20715;-79
2021/12/04 14:39:40;;;;;;;9.60;9.10;;;9.40;99.90;;;;;;5032615;28;20277;-79
2021/12/04 14:42:15;;;;;;;9.90;9.40;;;9.40;99.90;;;;;;5032886;28;20200;-79
2021/12/04 14:44:47;;;;;;;9.97;9.40;;;9.30;99.90;;;;;;5030059;28;20203;-78
2021/12/04 14:47:14;;;;;;;10.40;9.73;;;9.40;99.90;;;;;;5036984;28;20230;-79
2021/12/04 14:49:43;;;;;;;9.90;9.40;;;9.30;99.90;;;;;;5026015;28;20254;-79
2021/12/04 14:52:18;;;;;;;10.00;9.50;;;9.30;99.90;;;;;;5058726;28;20284;-78
2021/12/04 14:54:44;;;;;;;10.50;9.90;;;9.30;99.90;;;;;;5033263;28;20199;-79
2021/12/04 14:57:16;;;;;;;10.67;9.97;;;9.30;99.90;;;;;;5032611;28;20704;-79
2021/12/04 14:59:43;;;;;;;10.50;9.90;;;9.30;99.90;;;;;;5030943;28;20704;-79
2021/12/04 15:02:19;;;;;;;10.50;9.90;;;9.30;99.90;;;;;;5028352;28;20203;-79
2021/12/04 15:04:46;;;;;;;10.50;9.90;;;9.30;99.90;;;;;;5027079;28;20213;-79
2021/12/04 15:07:24;;;;;;;10.17;9.57;;;9.30;99.90;;;;;;5056084;28;20225;-79
2021/12/04 15:09:51;;;;;;;10.50;9.90;;;9.40;99.90;;;;;;5028557;28;20200;-79
2021/12/04 15:12:26;;;;;;;10.57;9.97;;;9.40;99.90;;;;;;5031956;28;20204;-79
2021/12/04 15:14:57;;;;;;;10.07;9.47;;;9.40;99.90;;;;;;5030853;28;20246;-79
2021/12/04 15:17:24;;;;;;;10.20;9.60;;;9.40;99.90;;;;;;5029622;28;20247;-79
2021/12/04 15:19:53;;;;;;;10.20;9.60;;;9.40;99.90;;;;;;5034618;28;20224;-79
2021/12/04 15:22:30;;;;;;;9.87;9.27;;;9.40;99.90;;;;;;5034279;28;20207;-79